Terminal Aerodrome Forecast
Issued by NWS Paducah, KY

Home | Current Version | Previous Version | Text Only | Print | Product List | Glossary Off
Versions: 1 2 3 4 5 6 7 8 9 10 11 12 13 14 15 16 17 18

000
FTUS43 KPAH 271120
TAFPAH
TAF
KPAH 271120Z 2712/2812 29005KT P6SM SCT050 OVC100
     FM271500 34010KT P6SM SCT030 OVC050
     FM272000 35012KT P6SM SCT050 OVC150
     FM272300 35006KT P6SM SCT150 BKN250
     FM280200 VRB03KT P6SM SCT250
     FM281100 VRB03KT P6SM SCT100 OVC250=

USA.gov is the U.S. government's official web portal to all federal, state and local government web resources and services.